createdAt,value
2023-08-29T00:00:21.106Z,4.40
2023-08-29T00:02:49.674Z,4.77
2023-08-29T00:05:16.912Z,4.43
2023-08-29T00:07:44.224Z,4.67
2023-08-29T00:10:11.873Z,4.73
2023-08-29T00:12:39.632Z,4.50
2023-08-29T00:15:07.762Z,4.43
2023-08-29T00:17:35.381Z,4.07
2023-08-29T00:20:04.066Z,4.47
2023-08-29T00:22:33.629Z,4.30
2023-08-29T00:25:01.441Z,4.53
2023-08-29T00:27:30.828Z,4.90
2023-08-29T00:29:58.925Z,4.80
2023-08-29T00:32:27.518Z,4.67
2023-08-29T00:34:54.732Z,4.80
2023-08-29T00:37:22.735Z,5.33
2023-08-29T00:39:50.187Z,4.53
2023-08-29T00:42:17.234Z,5.30
2023-08-29T00:44:44.469Z,4.80
2023-08-29T00:47:12.131Z,5.37
2023-08-29T00:49:39.699Z,4.57
2023-08-29T00:52:07.136Z,5.13
2023-08-29T00:54:34.947Z,5.13
2023-08-29T00:57:02.356Z,5.67
2023-08-29T00:59:30.930Z,5.33
2023-08-29T01:01:58.769Z,5.53
2023-08-29T01:04:26.509Z,5.37
2023-08-29T01:06:56.683Z,5.53
2023-08-29T01:09:24.529Z,6.23
2023-08-29T01:12:10.820Z,5.70
2023-08-29T01:14:59.923Z,6.47
2023-08-29T01:17:33.796Z,6.13
2023-08-29T01:20:01.935Z,5.90
2023-08-29T01:22:49.042Z,6.30
2023-08-29T01:25:47.027Z,6.40
2023-08-29T01:28:14.822Z,6.33
2023-08-29T01:30:42.574Z,5.90
2023-08-29T01:33:10.665Z,5.27
2023-08-29T01:35:48.644Z,6.27
2023-08-29T01:38:18.963Z,5.37
2023-08-29T01:40:46.796Z,5.67
2023-08-29T01:43:14.387Z,5.60
2023-08-29T01:45:41.831Z,6.43
2023-08-29T01:48:12.476Z,7.17
2023-08-29T01:50:41.831Z,5.33
2023-08-29T01:53:10.152Z,5.40
2023-08-29T01:55:40.145Z,5.40
2023-08-29T01:58:09.177Z,5.47
2023-08-29T02:00:39.424Z,5.33
2023-08-29T02:03:06.760Z,5.40
2023-08-29T02:05:33.941Z,5.20
2023-08-29T02:08:01.960Z,5.43
2023-08-29T02:10:32.877Z,5.60
2023-08-29T02:13:00.398Z,5.17
2023-08-29T02:15:28.296Z,5.50
2023-08-29T02:17:56.005Z,5.53
2023-08-29T02:20:23.181Z,5.43
2023-08-29T02:22:50.556Z,5.37
2023-08-29T02:25:19.378Z,5.60
2023-08-29T02:27:48.711Z,5.43
2023-08-29T02:30:16.098Z,5.73
2023-08-29T02:32:43.402Z,5.80
2023-08-29T02:35:11.573Z,6.10
2023-08-29T02:37:39.096Z,6.43
2023-08-29T02:40:09.013Z,6.23
2023-08-29T02:42:37.593Z,6.60
2023-08-29T02:45:05.933Z,5.63
2023-08-29T02:47:33.458Z,6.17
2023-08-29T02:50:00.646Z,5.90
2023-08-29T02:52:27.826Z,5.83
2023-08-29T02:54:54.991Z,5.73
2023-08-29T02:57:22.286Z,6.13
2023-08-29T02:59:50.441Z,6.07
2023-08-29T03:02:17.836Z,7.10
2023-08-29T03:04:45.281Z,6.47
2023-08-29T03:07:12.631Z,6.73
2023-08-29T03:09:39.903Z,6.70
2023-08-29T03:12:08.137Z,7.10
2023-08-29T03:14:35.534Z,6.77
2023-08-29T03:17:04.847Z,6.73
2023-08-29T03:19:32.396Z,6.57
2023-08-29T03:22:00.232Z,7.03
2023-08-29T03:24:27.368Z,6.17
2023-08-29T03:26:54.549Z,6.40
2023-08-29T03:29:21.740Z,6.63
2023-08-29T03:31:48.950Z,6.60
2023-08-29T03:34:16.039Z,6.53
2023-08-29T03:36:43.149Z,6.97
2023-08-29T03:39:10.293Z,6.70
2023-08-29T03:41:38.791Z,8.20
2023-08-29T03:44:06.641Z,7.57
2023-08-29T03:46:33.860Z,6.93
2023-08-29T03:49:01.080Z,7.37
2023-08-29T03:51:28.650Z,7.73
2023-08-29T03:53:55.836Z,7.70
2023-08-29T03:56:23.159Z,7.27
2023-08-29T03:58:50.624Z,6.83
2023-08-29T04:01:21.798Z,6.80
2023-08-29T04:03:52.608Z,7.20
2023-08-29T04:06:24.945Z,6.67
2023-08-29T04:08:53.436Z,7.37
2023-08-29T04:11:20.688Z,6.93
2023-08-29T04:13:48.612Z,7.17
2023-08-29T04:16:17.366Z,6.00
2023-08-29T04:18:44.522Z,7.23
2023-08-29T04:21:11.725Z,7.40
2023-08-29T04:23:38.979Z,6.90
2023-08-29T04:26:06.229Z,7.13
2023-08-29T04:28:33.676Z,6.30
2023-08-29T04:31:11.925Z,6.53
2023-08-29T04:33:40.415Z,6.13
2023-08-29T04:36:07.648Z,6.83
2023-08-29T04:38:34.892Z,6.20
2023-08-29T04:41:02.035Z,5.70
2023-08-29T04:43:29.190Z,7.00
2023-08-29T04:45:57.444Z,6.03
2023-08-29T04:48:24.704Z,5.97
2023-08-29T04:50:54.129Z,5.67
2023-08-29T04:53:22.187Z,5.67
2023-08-29T04:55:50.362Z,6.37
2023-08-29T04:58:17.597Z,5.47
2023-08-29T05:00:45.777Z,5.83
2023-08-29T05:03:13.054Z,5.70
2023-08-29T05:05:48.069Z,5.47
2023-08-29T05:08:15.949Z,5.43
2023-08-29T05:10:44.545Z,5.70
2023-08-29T05:13:12.488Z,5.50
2023-08-29T05:15:43.006Z,6.00
2023-08-29T05:18:11.715Z,5.53
2023-08-29T05:20:39.476Z,5.87
2023-08-29T05:23:06.695Z,5.60
2023-08-29T05:25:34.312Z,5.60
2023-08-29T05:28:01.512Z,5.40
2023-08-29T05:30:31.737Z,5.73
2023-08-29T05:32:59.829Z,5.70
2023-08-29T05:35:27.318Z,7.07
2023-08-29T05:37:57.275Z,6.23
2023-08-29T05:40:25.403Z,5.80
2023-08-29T05:42:52.875Z,5.90
2023-08-29T05:45:21.399Z,5.30
2023-08-29T05:47:50.046Z,5.53
2023-08-29T05:50:17.802Z,6.27
2023-08-29T05:52:46.030Z,5.90
2023-08-29T05:55:14.197Z,6.00
2023-08-29T05:57:41.963Z,6.13
2023-08-29T06:00:14.425Z,6.47
2023-08-29T06:02:45.664Z,6.33
2023-08-29T06:05:14.284Z,6.53
2023-08-29T06:07:41.406Z,6.33
2023-08-29T06:10:09.550Z,6.27
2023-08-29T06:12:37.224Z,6.57
2023-08-29T06:15:10.717Z,6.67
2023-08-29T06:24:22.588Z,6.53
2023-08-29T06:26:50.775Z,5.73
2023-08-29T06:29:18.319Z,5.43
2023-08-29T06:31:49.040Z,6.23
2023-08-29T06:34:16.926Z,5.90
2023-08-29T06:36:44.395Z,5.73
2023-08-29T06:39:11.472Z,5.27
2023-08-29T06:41:39.088Z,5.20
2023-08-29T06:44:07.795Z,5.93
2023-08-29T06:46:36.280Z,5.07
2023-08-29T06:49:07.521Z,4.97
2023-08-29T06:51:37.700Z,4.63
2023-08-29T06:54:05.335Z,4.97
2023-08-29T06:56:33.210Z,5.20
2023-08-29T06:59:00.471Z,4.93
2023-08-29T07:01:30.416Z,5.07
2023-08-29T07:04:01.134Z,4.93
2023-08-29T07:06:31.234Z,4.97
2023-08-29T07:08:58.897Z,5.10
2023-08-29T07:34:58.978Z,4.03
2023-08-29T07:37:28.803Z,4.33
2023-08-29T07:39:56.574Z,3.63
2023-08-29T07:42:24.065Z,3.67
2023-08-29T07:44:51.441Z,3.93
2023-08-29T07:47:18.701Z,4.20
2023-08-29T07:49:47.566Z,4.17
2023-08-29T07:52:15.743Z,4.17
2023-08-29T07:54:43.404Z,4.80
2023-08-29T07:57:11.282Z,3.40
2023-08-29T07:59:39.081Z,4.80
2023-08-29T08:02:07.218Z,4.73
2023-08-29T08:04:35.780Z,4.03
2023-08-29T08:07:03.487Z,4.27
2023-08-29T08:09:30.917Z,4.03
2023-08-29T08:11:58.282Z,3.80
2023-08-29T08:14:29.181Z,4.23
2023-08-29T08:16:56.653Z,4.00
2023-08-29T08:19:24.962Z,4.90
2023-08-29T08:21:53.336Z,4.40
2023-08-29T08:24:20.747Z,4.80
2023-08-29T08:26:49.384Z,4.83
2023-08-29T08:29:16.701Z,4.93
2023-08-29T08:31:44.292Z,5.70
2023-08-29T08:34:13.314Z,6.10
2023-08-29T08:36:42.133Z,7.03
2023-08-29T08:39:10.053Z,5.00
2023-08-29T08:41:39.753Z,6.10
2023-08-29T08:44:10.355Z,5.10
2023-08-29T08:46:38.889Z,5.87
2023-08-29T08:49:07.733Z,7.07
2023-08-29T08:51:38.872Z,6.70
2023-08-29T08:54:08.696Z,6.30
2023-08-29T08:56:37.116Z,6.03
2023-08-29T08:59:05.060Z,6.73
2023-08-29T09:01:32.550Z,8.97
2023-08-29T09:04:00.242Z,7.23
2023-08-29T09:06:27.592Z,6.70
2023-08-29T09:15:21.172Z,8.60
2023-08-29T09:17:53.501Z,8.43
2023-08-29T09:20:25.812Z,10.37
2023-08-29T09:22:53.088Z,8.30
2023-08-29T09:25:20.163Z,7.77
2023-08-29T09:27:51.108Z,9.47
2023-08-29T09:30:19.399Z,8.97
2023-08-29T09:32:54.205Z,7.80
2023-08-29T09:35:24.557Z,7.80
2023-08-29T09:38:00.682Z,7.40
2023-08-29T09:40:38.124Z,7.47
2023-08-29T09:43:10.223Z,7.03
2023-08-29T09:45:39.313Z,6.83
2023-08-29T09:48:10.367Z,6.10
2023-08-29T09:50:39.086Z,6.37
2023-08-29T09:53:08.437Z,6.17
2023-08-29T09:55:43.694Z,5.80
2023-08-29T09:58:13.177Z,6.53
2023-08-29T10:00:42.651Z,6.35
2023-08-29T10:03:11.563Z,7.10
2023-08-29T10:05:48.078Z,5.67
2023-08-29T10:08:32.347Z,5.53
2023-08-29T10:11:02.370Z,5.77
2023-08-29T10:13:30.528Z,5.53
2023-08-29T10:15:59.168Z,5.10
2023-08-29T10:18:29.324Z,5.57
2023-08-29T10:20:58.214Z,5.13
2023-08-29T10:23:28.182Z,5.10
2023-08-29T10:25:59.743Z,5.38
2023-08-29T10:28:27.447Z,5.93
2023-08-29T10:31:00.163Z,5.50
2023-08-29T10:33:27.568Z,5.40
2023-08-29T10:35:55.355Z,5.43
2023-08-29T10:38:26.420Z,6.07
2023-08-29T10:41:08.739Z,6.05
2023-08-29T10:43:38.401Z,5.45
2023-08-29T10:46:11.686Z,4.75
2023-08-29T10:48:52.780Z,5.63
2023-08-29T10:51:24.939Z,4.63
2023-08-29T10:54:06.803Z,5.50
2023-08-29T10:56:44.021Z,5.05
2023-08-29T10:59:32.493Z,5.00
2023-08-29T11:02:28.737Z,5.32
2023-08-29T11:05:05.356Z,5.53
2023-08-29T11:07:36.137Z,5.22
2023-08-29T11:10:26.041Z,4.88
2023-08-29T11:13:09.510Z,5.80
2023-08-29T11:15:52.097Z,5.28
2023-08-29T11:18:36.043Z,5.50
2023-08-29T11:21:08.620Z,5.93
2023-08-29T11:23:41.854Z,6.15
2023-08-29T11:26:10.416Z,6.40
2023-08-29T11:28:46.627Z,5.55
2023-08-29T11:31:13.946Z,4.72
2023-08-29T11:33:41.163Z,4.68
2023-08-29T11:36:11.038Z,5.45
2023-08-29T11:38:38.963Z,5.30
2023-08-29T11:41:21.838Z,5.28
2023-08-29T11:44:17.128Z,5.22
2023-08-29T11:46:48.320Z,4.63
2023-08-29T11:49:16.638Z,4.60
2023-08-29T11:51:45.472Z,4.07
2023-08-29T11:54:54.346Z,4.75
2023-08-29T11:57:22.101Z,4.85
2023-08-29T11:59:53.962Z,4.57
2023-08-29T12:02:24.705Z,4.47
2023-08-29T12:04:57.856Z,5.35
2023-08-29T12:07:32.624Z,4.30
2023-08-29T12:10:09.726Z,4.25
2023-08-29T12:12:38.533Z,4.60
2023-08-29T12:15:08.090Z,4.00
2023-08-29T12:17:41.686Z,4.57
2023-08-29T12:20:15.451Z,4.45
2023-08-29T12:22:48.614Z,4.40
2023-08-29T12:25:16.530Z,4.07
2023-08-29T12:27:46.155Z,4.00
2023-08-29T12:30:17.277Z,4.63
2023-08-29T12:32:46.544Z,3.80
2023-08-29T12:35:16.486Z,3.75
2023-08-29T12:37:48.629Z,3.75
2023-08-29T12:40:18.189Z,3.28
2023-08-29T12:42:48.705Z,3.83
2023-08-29T12:45:16.347Z,3.85
2023-08-29T12:47:47.183Z,4.40
2023-08-29T12:50:16.051Z,3.60
2023-08-29T12:52:43.874Z,4.05
2023-08-29T12:55:13.397Z,4.65
2023-08-29T12:57:44.357Z,3.70
2023-08-29T13:00:12.099Z,4.28
2023-08-29T13:02:41.656Z,4.72
2023-08-29T13:05:09.558Z,4.18
2023-08-29T13:07:37.544Z,4.20
2023-08-29T13:10:09.191Z,4.00
2023-08-29T13:12:38.888Z,4.18
2023-08-29T13:15:12.517Z,3.97
2023-08-29T13:17:41.279Z,4.38
2023-08-29T13:20:09.146Z,5.25
2023-08-29T13:22:40.896Z,4.93
2023-08-29T13:25:08.877Z,3.88
2023-08-29T13:27:37.866Z,4.22
2023-08-29T13:30:06.190Z,4.25
2023-08-29T13:32:38.397Z,3.50
2023-08-29T13:35:06.129Z,3.78
2023-08-29T13:37:33.974Z,4.47
2023-08-29T13:43:22.745Z,4.97
2023-08-29T13:45:50.244Z,4.22
2023-08-29T13:48:18.042Z,4.32
2023-08-29T13:50:46.626Z,4.05
2023-08-29T13:53:14.283Z,3.90
2023-08-29T13:55:41.665Z,4.78
2023-08-29T13:58:09.430Z,4.13
2023-08-29T14:00:43.235Z,3.80
2023-08-29T14:03:18.509Z,3.85
2023-08-29T14:08:20.776Z,4.15
2023-08-29T14:10:48.198Z,4.82
2023-08-29T14:13:15.585Z,4.60
2023-08-29T14:15:42.949Z,4.63
2023-08-29T14:18:10.905Z,4.25
2023-08-29T14:20:45.843Z,4.10
2023-08-29T14:23:13.337Z,4.47
2023-08-29T14:25:42.077Z,3.90
2023-08-29T14:28:09.411Z,3.70
2023-08-29T14:30:42.272Z,4.45
2023-08-29T14:33:12.471Z,4.10
2023-08-29T14:35:42.413Z,4.20
2023-08-29T14:38:11.030Z,5.68
2023-08-29T14:40:39.229Z,3.90
2023-08-29T14:43:06.698Z,3.97
2023-08-29T14:45:34.041Z,3.78
2023-08-29T14:48:02.688Z,4.22
2023-08-29T14:50:30.354Z,4.78
2023-08-29T14:52:57.541Z,4.35
2023-08-29T14:55:25.901Z,3.67
2023-08-29T14:57:54.517Z,3.97
2023-08-29T15:00:21.763Z,3.80
2023-08-29T15:02:49.882Z,3.80
2023-08-29T15:05:18.116Z,4.05
2023-08-29T15:07:45.368Z,4.00
2023-08-29T15:10:12.722Z,4.25
2023-08-29T15:12:40.336Z,4.20
2023-08-29T15:15:08.594Z,3.70
2023-08-29T15:17:36.220Z,4.47
2023-08-29T15:20:10.174Z,3.65
2023-08-29T15:22:38.419Z,4.28
2023-08-29T15:25:07.900Z,3.90
2023-08-29T15:27:35.235Z,4.00
2023-08-29T15:30:04.832Z,3.70
2023-08-29T15:32:33.950Z,4.38
2023-08-29T15:35:07.182Z,3.90
2023-08-29T15:37:36.339Z,3.58
2023-08-29T15:40:05.052Z,3.78
2023-08-29T15:42:33.190Z,3.47
2023-08-29T15:45:00.249Z,3.67
2023-08-29T15:47:27.847Z,3.25
2023-08-29T15:49:56.341Z,3.55
2023-08-29T15:52:25.553Z,3.65
2023-08-29T15:54:53.830Z,3.58
2023-08-29T15:57:20.906Z,4.65
2023-08-29T15:59:48.659Z,4.40
2023-08-29T16:02:15.881Z,6.30
2023-08-29T16:04:44.164Z,5.03
2023-08-29T16:07:11.457Z,4.80
2023-08-29T16:09:38.878Z,4.20
2023-08-29T16:12:06.534Z,4.60
2023-08-29T16:14:33.881Z,4.63
2023-08-29T16:17:02.523Z,4.80
2023-08-29T16:19:30.837Z,4.55
2023-08-29T16:21:58.998Z,7.47
2023-08-29T16:24:26.194Z,9.60
2023-08-29T17:13:50.396Z,6.10
2023-08-29T17:16:23.182Z,6.75
2023-08-29T17:18:50.611Z,5.43
2023-08-29T17:21:19.049Z,4.10
2023-08-29T17:23:47.467Z,5.30
2023-08-29T17:26:17.406Z,5.50
2023-08-29T17:28:46.695Z,4.73
2023-08-29T17:31:13.952Z,3.90
2023-08-29T17:33:41.108Z,3.67
2023-08-29T17:36:08.710Z,3.40
2023-08-29T17:38:35.816Z,3.97
2023-08-29T17:41:03.189Z,5.03
2023-08-29T17:43:30.720Z,4.07
2023-08-29T17:45:58.364Z,4.70
2023-08-29T17:48:27.453Z,5.37
2023-08-29T17:51:01.790Z,4.60
2023-08-29T17:53:29.817Z,4.97
2023-08-29T17:55:57.553Z,5.43
2023-08-29T17:58:25.863Z,5.47
2023-08-29T18:00:53.704Z,6.87
2023-08-29T18:03:21.120Z,6.50
2023-08-29T18:05:50.132Z,5.87
2023-08-29T18:08:18.364Z,5.17
2023-08-29T18:10:46.982Z,6.27
2023-08-29T18:13:15.000Z,5.47
2023-08-29T18:15:43.156Z,5.97
2023-08-29T18:18:18.359Z,5.70
2023-08-29T18:20:47.514Z,5.97
2023-08-29T18:23:14.715Z,5.53
2023-08-29T18:25:42.115Z,5.77
2023-08-29T18:28:09.723Z,5.87
2023-08-29T18:30:37.861Z,6.20
2023-08-29T18:33:07.996Z,5.40
2023-08-29T18:35:35.991Z,5.90
2023-08-29T18:38:06.434Z,5.17
2023-08-29T18:40:33.914Z,5.60
2023-08-29T18:43:01.197Z,5.03
2023-08-29T18:45:28.577Z,5.30
2023-08-29T18:48:00.102Z,5.30
2023-08-29T18:50:27.831Z,5.70
2023-08-29T18:52:56.898Z,5.20
2023-08-29T18:55:24.165Z,5.13
2023-08-29T18:57:52.504Z,4.73
2023-08-29T19:00:21.265Z,5.03
2023-08-29T19:02:49.668Z,4.33
2023-08-29T19:05:19.376Z,4.73
2023-08-29T19:07:47.232Z,4.97
2023-08-29T19:10:15.217Z,5.13
2023-08-29T19:12:45.440Z,5.00
2023-08-29T19:15:12.598Z,5.13
2023-08-29T19:17:41.159Z,4.60
2023-08-29T19:20:09.014Z,4.57
2023-08-29T19:22:36.305Z,5.17
2023-08-29T19:25:03.927Z,4.80
2023-08-29T19:27:33.819Z,5.33
2023-08-29T19:30:01.058Z,5.87
2023-08-29T19:32:29.343Z,5.17
2023-08-29T19:34:56.529Z,5.67
2023-08-29T19:37:23.625Z,5.37
2023-08-29T19:39:51.121Z,4.53
2023-08-29T19:42:18.659Z,5.50
2023-08-29T19:44:45.882Z,5.13
2023-08-29T19:47:13.130Z,5.40
2023-08-29T19:49:48.557Z,4.60
2023-08-29T19:52:17.125Z,5.00
2023-08-29T19:54:44.547Z,4.63
2023-08-29T19:57:11.688Z,4.83
2023-08-29T19:59:38.764Z,5.37
2023-08-29T20:02:06.230Z,4.80
2023-08-29T20:04:33.691Z,4.90
2023-08-29T20:07:00.876Z,5.77
2023-08-29T20:09:27.953Z,5.70
2023-08-29T20:11:55.543Z,5.17
2023-08-29T20:14:22.625Z,5.63
2023-08-29T20:16:49.954Z,4.80
2023-08-29T20:19:17.124Z,4.90
2023-08-29T20:21:44.352Z,5.03
2023-08-29T20:24:11.433Z,4.90
2023-08-29T20:26:38.456Z,6.17
2023-08-29T20:29:05.640Z,5.80
2023-08-29T20:31:33.128Z,5.97
2023-08-29T20:34:03.465Z,5.93
2023-08-29T20:36:37.937Z,5.43
2023-08-29T20:39:05.158Z,4.90
2023-08-29T20:41:32.243Z,5.43
2023-08-29T20:44:10.528Z,5.70
2023-08-29T20:46:42.395Z,5.30
2023-08-29T20:49:09.510Z,5.30
2023-08-29T20:51:39.446Z,6.13
2023-08-29T20:54:10.483Z,5.63
2023-08-29T20:56:38.027Z,5.47
2023-08-29T20:59:05.480Z,5.73
2023-08-29T21:01:32.569Z,5.27
2023-08-29T21:03:59.905Z,5.50
2023-08-29T21:06:28.472Z,4.93
2023-08-29T21:08:55.745Z,5.00
2023-08-29T21:11:22.928Z,5.30
2023-08-29T21:13:50.547Z,4.97
2023-08-29T21:16:17.603Z,5.70
2023-08-29T21:18:44.743Z,5.23
2023-08-29T21:21:12.824Z,5.70
2023-08-29T21:23:41.026Z,5.60
2023-08-29T21:26:09.286Z,4.87
2023-08-29T21:28:37.902Z,6.30
2023-08-29T21:31:19.420Z,5.87
2023-08-29T21:33:47.009Z,5.90
2023-08-29T21:36:15.458Z,5.07
2023-08-29T21:38:45.185Z,5.17
2023-08-29T21:41:12.379Z,5.37
2023-08-29T21:43:39.519Z,5.20
2023-08-29T21:46:07.753Z,5.20
2023-08-29T21:48:36.292Z,5.03
2023-08-29T21:51:03.813Z,5.00
2023-08-29T21:53:31.450Z,5.30
2023-08-29T21:55:59.070Z,5.20
2023-08-29T21:58:26.879Z,6.73
2023-08-29T22:00:55.548Z,5.40
2023-08-29T22:03:24.232Z,5.37
2023-08-29T22:05:53.296Z,5.13
2023-08-29T22:08:21.660Z,5.07
2023-08-29T22:10:49.634Z,5.73
2023-08-29T22:13:16.986Z,5.50
2023-08-29T22:15:44.391Z,5.43
2023-08-29T22:18:12.473Z,5.30
2023-08-29T22:20:40.291Z,5.50
2023-08-29T22:23:08.693Z,5.10
2023-08-29T22:25:36.981Z,5.03
2023-08-29T22:28:04.483Z,5.73
2023-08-29T22:30:31.621Z,5.20
2023-08-29T22:32:58.802Z,5.43
2023-08-29T22:35:26.085Z,5.03
2023-08-29T22:37:53.752Z,5.10
2023-08-29T22:40:20.855Z,5.40
2023-08-29T22:42:47.968Z,5.57
2023-08-29T22:45:15.473Z,5.50
2023-08-29T22:47:43.528Z,5.13
2023-08-29T22:50:11.262Z,5.70
2023-08-29T22:52:41.264Z,5.70
2023-08-29T22:55:10.362Z,6.00
2023-08-29T22:57:37.703Z,5.77
2023-08-29T23:00:07.441Z,5.57
2023-08-29T23:02:34.691Z,5.37
2023-08-29T23:05:20.266Z,5.63
2023-08-29T23:07:47.489Z,5.60
2023-08-29T23:10:15.134Z,5.63
2023-08-29T23:12:42.519Z,6.00
2023-08-29T23:15:11.392Z,6.47
2023-08-29T23:17:39.108Z,5.33
2023-08-29T23:20:09.186Z,5.67
2023-08-29T23:22:36.819Z,6.23
2023-08-29T23:25:07.620Z,5.60
2023-08-29T23:27:36.382Z,5.83
2023-08-29T23:30:03.742Z,5.70
2023-08-29T23:32:31.631Z,6.67
2023-08-29T23:34:59.781Z,5.37
2023-08-29T23:37:26.912Z,5.57
2023-08-29T23:39:54.549Z,5.90
2023-08-29T23:42:21.617Z,5.97
2023-08-29T23:44:50.373Z,6.20
2023-08-29T23:47:17.596Z,6.13
2023-08-29T23:49:46.185Z,5.53
2023-08-29T23:52:13.559Z,6.23
2023-08-29T23:54:40.578Z,5.83
2023-08-29T23:57:07.976Z,5.33
2023-08-29T23:59:36.181Z,6.40
